Russelville, Illinois
Current Conditions -  °F | °C
As of 5:53 AM on Saturday 25 Oct 2014 (Local Time) from KLWV Reporting Station
Haze Haze  
Wind Chill: 53°   Ceiling: Unl
Heat Index: 53°   Visibility: 6mi
Dew Point: 52°   Wind: 5mph
Humidity: 96%   Direction: 180°S
Pressure: 29.99"   Gusts: NA
Location:  38.7501°N, 87.6141°W
Report Text: KLWV 251053Z AUTO 18004KT 6SM BR FEW050 12/11 A2999 RMK AO2 SLP154 T01170111
Loading
Personal Weather Stations






























Interactive Weather Map New forecast layout! Learn more

10-Day Weather Forecast

Advertisements
Track Severe Weather on mobile